sensor_id;sensor_type;location;lat;lon;timestamp;pressure;altitude;pressure_sealevel;temperature;humidity
55066;BME280;40964;42.114;24.220;2023-02-23T00:01:28;97753.97;;;7.17;67.04
55066;BME280;40964;42.114;24.220;2023-02-23T00:03:58;97737.03;;;7.06;67.66
55066;BME280;40964;42.114;24.220;2023-02-23T00:06:25;97762.00;;;7.09;67.99
55066;BME280;40964;42.114;24.220;2023-02-23T00:08:51;97755.94;;;7.02;68.16
55066;BME280;40964;42.114;24.220;2023-02-23T00:11:18;97758.72;;;7.00;67.67
55066;BME280;40964;42.114;24.220;2023-02-23T00:13:45;97760.94;;;6.97;68.39
55066;BME280;40964;42.114;24.220;2023-02-23T00:16:17;97751.03;;;6.86;70.80
55066;BME280;40964;42.114;24.220;2023-02-23T00:18:45;97752.84;;;6.85;71.12
55066;BME280;40964;42.114;24.220;2023-02-23T00:21:29;97751.81;;;6.79;73.02
55066;BME280;40964;42.114;24.220;2023-02-23T00:24:03;97748.19;;;6.80;73.04
55066;BME280;40964;42.114;24.220;2023-02-23T00:26:31;97748.16;;;6.74;73.53
55066;BME280;40964;42.114;24.220;2023-02-23T00:29:01;97743.13;;;6.72;73.57
55066;BME280;40964;42.114;24.220;2023-02-23T00:31:27;97745.31;;;6.69;74.02
55066;BME280;40964;42.114;24.220;2023-02-23T00:33:55;97748.53;;;6.71;73.71
55066;BME280;40964;42.114;24.220;2023-02-23T00:36:23;97749.34;;;6.71;73.46
55066;BME280;40964;42.114;24.220;2023-02-23T00:38:59;97754.56;;;6.71;74.15
55066;BME280;40964;42.114;24.220;2023-02-23T00:41:26;97749.94;;;6.73;74.11
55066;BME280;40964;42.114;24.220;2023-02-23T00:43:57;97752.34;;;6.68;72.50
55066;BME280;40964;42.114;24.220;2023-02-23T00:46:24;97752.97;;;6.70;73.41
55066;BME280;40964;42.114;24.220;2023-02-23T00:48:51;97750.94;;;6.72;73.42
55066;BME280;40964;42.114;24.220;2023-02-23T00:51:19;97755.38;;;6.72;73.40
55066;BME280;40964;42.114;24.220;2023-02-23T00:53:45;97756.34;;;6.64;73.17
55066;BME280;40964;42.114;24.220;2023-02-23T00:56:13;97754.13;;;6.61;72.95
55066;BME280;40964;42.114;24.220;2023-02-23T00:58:38;97751.91;;;6.58;72.58
55066;BME280;40964;42.114;24.220;2023-02-23T01:01:08;97746.81;;;6.50;72.56
55066;BME280;40964;42.114;24.220;2023-02-23T01:03:35;97761.69;;;6.49;71.50
55066;BME280;40964;42.114;24.220;2023-02-23T01:06:02;97764.44;;;6.41;71.93
55066;BME280;40964;42.114;24.220;2023-02-23T01:08:33;97767.75;;;6.29;71.90
55066;BME280;40964;42.114;24.220;2023-02-23T01:11:06;97757.88;;;6.24;72.65
55066;BME280;40964;42.114;24.220;2023-02-23T01:13:33;97752.19;;;6.14;73.21
55066;BME280;40964;42.114;24.220;2023-02-23T01:15:59;97761.44;;;6.16;74.14
55066;BME280;40964;42.114;24.220;2023-02-23T01:18:24;97765.19;;;6.07;74.05
55066;BME280;40964;42.114;24.220;2023-02-23T01:20:50;97763.75;;;6.05;74.13
55066;BME280;40964;42.114;24.220;2023-02-23T01:23:15;97757.06;;;5.95;74.39
55066;BME280;40964;42.114;24.220;2023-02-23T01:25:43;97751.56;;;5.90;74.82
55066;BME280;40964;42.114;24.220;2023-02-23T01:28:10;97750.50;;;5.85;74.93
55066;BME280;40964;42.114;24.220;2023-02-23T01:30:36;97757.47;;;5.78;75.62
55066;BME280;40964;42.114;24.220;2023-02-23T01:33:02;97760.81;;;5.72;76.04
55066;BME280;40964;42.114;24.220;2023-02-23T01:35:28;97752.38;;;5.69;76.13
55066;BME280;40964;42.114;24.220;2023-02-23T01:37:54;97756.31;;;5.65;75.71
55066;BME280;40964;42.114;24.220;2023-02-23T01:40:22;97758.09;;;5.58;75.69
55066;BME280;40964;42.114;24.220;2023-02-23T01:42:55;97755.69;;;5.42;76.43
55066;BME280;40964;42.114;24.220;2023-02-23T01:48:03;97750.22;;;5.37;77.22
55066;BME280;40964;42.114;24.220;2023-02-23T01:50:38;97759.75;;;5.30;78.32
55066;BME280;40964;42.114;24.220;2023-02-23T01:53:06;97747.03;;;5.20;77.56
55066;BME280;40964;42.114;24.220;2023-02-23T01:55:31;97754.31;;;5.25;77.38
55066;BME280;40964;42.114;24.220;2023-02-23T01:58:03;97757.72;;;5.25;77.89
55066;BME280;40964;42.114;24.220;2023-02-23T02:00:30;97760.13;;;5.27;77.72
55066;BME280;40964;42.114;24.220;2023-02-23T02:02:58;97753.31;;;5.26;77.41
55066;BME280;40964;42.114;24.220;2023-02-23T02:05:27;97759.13;;;5.28;76.84
55066;BME280;40964;42.114;24.220;2023-02-23T02:07:54;97759.53;;;5.25;77.79
55066;BME280;40964;42.114;24.220;2023-02-23T02:10:24;97757.91;;;5.24;77.84
55066;BME280;40964;42.114;24.220;2023-02-23T02:13:06;97753.03;;;5.21;78.87
55066;BME280;40964;42.114;24.220;2023-02-23T02:15:37;97751.88;;;5.23;77.74
55066;BME280;40964;42.114;24.220;2023-02-23T02:18:15;97757.72;;;5.25;77.59
55066;BME280;40964;42.114;24.220;2023-02-23T02:24:13;97763.84;;;5.18;77.70
55066;BME280;40964;42.114;24.220;2023-02-23T02:26:52;97753.59;;;5.16;79.09
55066;BME280;40964;42.114;24.220;2023-02-23T02:40:44;97760.28;;;4.89;79.08
55066;BME280;40964;42.114;24.220;2023-02-23T02:48:44;97754.63;;;4.71;82.31
55066;BME280;40964;42.114;24.220;2023-02-23T02:51:31;97755.72;;;4.76;81.97
55066;BME280;40964;42.114;24.220;2023-02-23T02:56:59;97750.66;;;4.75;83.36
55066;BME280;40964;42.114;24.220;2023-02-23T02:59:26;97752.94;;;4.78;82.94
55066;BME280;40964;42.114;24.220;2023-02-23T03:02:16;97751.13;;;4.78;83.00
55066;BME280;40964;42.114;24.220;2023-02-23T03:05:01;97755.44;;;4.86;82.83
55066;BME280;40964;42.114;24.220;2023-02-23T03:08:07;97753.66;;;4.87;82.50
55066;BME280;40964;42.114;24.220;2023-02-23T03:14:07;97755.16;;;4.81;83.09
55066;BME280;40964;42.114;24.220;2023-02-23T03:20:02;97747.91;;;4.76;82.97
55066;BME280;40964;42.114;24.220;2023-02-23T03:26:22;97762.00;;;4.82;83.04
55066;BME280;40964;42.114;24.220;2023-02-23T03:29:15;97763.53;;;4.76;83.27
55066;BME280;40964;42.114;24.220;2023-02-23T03:36:18;97767.47;;;4.72;82.83
55066;BME280;40964;42.114;24.220;2023-02-23T03:39:11;97770.97;;;4.65;83.62
55066;BME280;40964;42.114;24.220;2023-02-23T03:42:00;97774.31;;;4.59;84.34
55066;BME280;40964;42.114;24.220;2023-02-23T03:44:47;97775.84;;;4.68;84.21
55066;BME280;40964;42.114;24.220;2023-02-23T03:47:35;97781.31;;;4.73;84.24
55066;BME280;40964;42.114;24.220;2023-02-23T03:53:16;97779.41;;;4.67;83.55
55066;BME280;40964;42.114;24.220;2023-02-23T03:56:02;97785.34;;;4.61;84.25
55066;BME280;40964;42.114;24.220;2023-02-23T03:58:50;97771.78;;;4.50;83.97
55066;BME280;40964;42.114;24.220;2023-02-23T04:01:37;97769.00;;;4.52;84.51
55066;BME280;40964;42.114;24.220;2023-02-23T04:04:23;97777.00;;;4.65;84.36
55066;BME280;40964;42.114;24.220;2023-02-23T04:07:09;97766.38;;;4.67;84.45
55066;BME280;40964;42.114;24.220;2023-02-23T04:09:56;97769.78;;;4.67;83.57
55066;BME280;40964;42.114;24.220;2023-02-23T04:15:51;97771.88;;;4.72;83.79
55066;BME280;40964;42.114;24.220;2023-02-23T04:18:30;97772.31;;;4.75;84.39
55066;BME280;40964;42.114;24.220;2023-02-23T04:20:57;97774.91;;;4.75;83.94
55066;BME280;40964;42.114;24.220;2023-02-23T04:23:23;97771.97;;;4.78;84.10
55066;BME280;40964;42.114;24.220;2023-02-23T04:25:50;97772.78;;;4.79;83.60
55066;BME280;40964;42.114;24.220;2023-02-23T04:28:15;97769.38;;;4.78;83.27
55066;BME280;40964;42.114;24.220;2023-02-23T04:30:42;97765.59;;;4.81;83.44
55066;BME280;40964;42.114;24.220;2023-02-23T04:33:07;97752.28;;;4.76;83.63
55066;BME280;40964;42.114;24.220;2023-02-23T04:35:34;97771.78;;;4.80;82.84
55066;BME280;40964;42.114;24.220;2023-02-23T04:38:00;97774.41;;;4.80;83.41
55066;BME280;40964;42.114;24.220;2023-02-23T04:40:26;97773.50;;;4.88;83.77
55066;BME280;40964;42.114;24.220;2023-02-23T04:42:52;97770.44;;;4.84;83.95
55066;BME280;40964;42.114;24.220;2023-02-23T04:45:18;97756.53;;;4.77;84.00
55066;BME280;40964;42.114;24.220;2023-02-23T04:47:44;97762.97;;;4.81;83.41
55066;BME280;40964;42.114;24.220;2023-02-23T04:50:11;97774.94;;;4.90;83.52
55066;BME280;40964;42.114;24.220;2023-02-23T04:52:37;97777.16;;;4.93;82.98
55066;BME280;40964;42.114;24.220;2023-02-23T04:55:04;97766.41;;;4.81;83.45
55066;BME280;40964;42.114;24.220;2023-02-23T04:57:31;97784.19;;;4.93;83.17
55066;BME280;40964;42.114;24.220;2023-02-23T04:59:57;97784.72;;;4.88;82.80
55066;BME280;40964;42.114;24.220;2023-02-23T05:02:23;97784.91;;;4.87;82.31
55066;BME280;40964;42.114;24.220;2023-02-23T05:04:49;97797.13;;;4.86;82.51
55066;BME280;40964;42.114;24.220;2023-02-23T05:07:15;97783.47;;;4.84;82.55
55066;BME280;40964;42.114;24.220;2023-02-23T05:09:40;97789.41;;;4.78;82.90
55066;BME280;40964;42.114;24.220;2023-02-23T05:12:06;97795.59;;;4.77;83.31
55066;BME280;40964;42.114;24.220;2023-02-23T05:14:31;97798.84;;;4.79;82.92
55066;BME280;40964;42.114;24.220;2023-02-23T05:16:57;97792.00;;;4.78;82.52
55066;BME280;40964;42.114;24.220;2023-02-23T05:19:22;97800.44;;;4.80;83.14
55066;BME280;40964;42.114;24.220;2023-02-23T05:21:48;97798.84;;;4.79;83.15
55066;BME280;40964;42.114;24.220;2023-02-23T05:24:15;97795.06;;;4.81;82.92
55066;BME280;40964;42.114;24.220;2023-02-23T05:26:41;97802.88;;;4.81;83.06
55066;BME280;40964;42.114;24.220;2023-02-23T05:29:07;97801.69;;;4.84;83.98
55066;BME280;40964;42.114;24.220;2023-02-23T05:31:33;97812.22;;;4.91;84.41
55066;BME280;40964;42.114;24.220;2023-02-23T05:33:59;97809.53;;;4.99;84.47
55066;BME280;40964;42.114;24.220;2023-02-23T05:36:24;97818.78;;;5.01;84.27
55066;BME280;40964;42.114;24.220;2023-02-23T05:38:50;97818.78;;;5.01;83.91
55066;BME280;40964;42.114;24.220;2023-02-23T05:41:18;97816.06;;;5.09;84.46
55066;BME280;40964;42.114;24.220;2023-02-23T05:43:43;97820.75;;;5.14;83.70
55066;BME280;40964;42.114;24.220;2023-02-23T05:46:18;97832.25;;;5.20;83.70
55066;BME280;40964;42.114;24.220;2023-02-23T05:48:44;97834.31;;;5.24;82.89
55066;BME280;40964;42.114;24.220;2023-02-23T05:51:12;97840.59;;;5.30;82.87
55066;BME280;40964;42.114;24.220;2023-02-23T05:53:38;97844.28;;;5.35;82.14
55066;BME280;40964;42.114;24.220;2023-02-23T05:56:05;97845.19;;;5.43;82.36
55066;BME280;40964;42.114;24.220;2023-02-23T05:58:31;97837.78;;;5.46;82.31
55066;BME280;40964;42.114;24.220;2023-02-23T06:00:57;97850.38;;;5.57;81.44
55066;BME280;40964;42.114;24.220;2023-02-23T06:03:22;97847.50;;;5.52;81.67
55066;BME280;40964;42.114;24.220;2023-02-23T06:05:52;97857.75;;;5.54;82.12
55066;BME280;40964;42.114;24.220;2023-02-23T06:08:18;97857.31;;;5.50;81.60
55066;BME280;40964;42.114;24.220;2023-02-23T06:10:45;97861.63;;;5.43;82.35
55066;BME280;40964;42.114;24.220;2023-02-23T06:13:11;97862.25;;;5.45;83.09
55066;BME280;40964;42.114;24.220;2023-02-23T06:15:36;97862.63;;;5.42;83.16
55066;BME280;40964;42.114;24.220;2023-02-23T06:18:03;97868.75;;;5.49;82.32
55066;BME280;40964;42.114;24.220;2023-02-23T06:20:28;97878.00;;;5.52;83.23
55066;BME280;40964;42.114;24.220;2023-02-23T06:22:54;97879.19;;;5.34;83.64
55066;BME280;40964;42.114;24.220;2023-02-23T06:25:20;97870.63;;;5.40;83.36
55066;BME280;40964;42.114;24.220;2023-02-23T06:27:46;97874.75;;;5.50;82.54
55066;BME280;40964;42.114;24.220;2023-02-23T06:30:12;97886.63;;;5.67;82.10
55066;BME280;40964;42.114;24.220;2023-02-23T06:32:37;97886.34;;;5.62;81.88
55066;BME280;40964;42.114;24.220;2023-02-23T06:35:07;97873.50;;;5.46;81.84
55066;BME280;40964;42.114;24.220;2023-02-23T06:37:33;97887.25;;;5.54;82.90
55066;BME280;40964;42.114;24.220;2023-02-23T06:39:59;97880.31;;;5.61;83.08
55066;BME280;40964;42.114;24.220;2023-02-23T06:42:24;97871.94;;;5.66;83.35
55066;BME280;40964;42.114;24.220;2023-02-23T06:44:50;97886.56;;;5.82;82.96
55066;BME280;40964;42.114;24.220;2023-02-23T06:47:16;97876.75;;;5.84;82.49
55066;BME280;40964;42.114;24.220;2023-02-23T06:49:41;97888.44;;;6.03;82.59
55066;BME280;40964;42.114;24.220;2023-02-23T06:52:08;97883.94;;;6.11;81.82
55066;BME280;40964;42.114;24.220;2023-02-23T06:54:34;97892.00;;;6.16;81.73
55066;BME280;40964;42.114;24.220;2023-02-23T06:57:00;97896.09;;;6.25;80.04
55066;BME280;40964;42.114;24.220;2023-02-23T06:59:25;97897.91;;;6.25;80.77
55066;BME280;40964;42.114;24.220;2023-02-23T07:01:51;97899.91;;;6.23;79.44
55066;BME280;40964;42.114;24.220;2023-02-23T07:04:16;97900.00;;;6.15;76.69
55066;BME280;40964;42.114;24.220;2023-02-23T07:06:42;97900.59;;;6.32;76.80
55066;BME280;40964;42.114;24.220;2023-02-23T07:09:08;97894.06;;;6.42;77.20
55066;BME280;40964;42.114;24.220;2023-02-23T07:11:34;97893.84;;;6.44;75.56
55066;BME280;40964;42.114;24.220;2023-02-23T07:14:00;97880.56;;;6.39;75.58
55066;BME280;40964;42.114;24.220;2023-02-23T07:16:29;97897.47;;;6.43;75.45
55066;BME280;40964;42.114;24.220;2023-02-23T07:18:54;97892.44;;;6.41;74.92
55066;BME280;40964;42.114;24.220;2023-02-23T07:21:20;97897.53;;;6.49;74.76
55066;BME280;40964;42.114;24.220;2023-02-23T07:23:46;97893.31;;;6.48;76.22
55066;BME280;40964;42.114;24.220;2023-02-23T07:26:15;97894.00;;;6.57;75.84
55066;BME280;40964;42.114;24.220;2023-02-23T07:28:42;97892.19;;;6.58;75.04
55066;BME280;40964;42.114;24.220;2023-02-23T07:31:07;97884.69;;;6.54;74.85
55066;BME280;40964;42.114;24.220;2023-02-23T07:33:33;97886.31;;;6.77;75.12
55066;BME280;40964;42.114;24.220;2023-02-23T07:35:59;97882.69;;;6.78;75.44
55066;BME280;40964;42.114;24.220;2023-02-23T07:38:24;97888.59;;;6.87;74.28
55066;BME280;40964;42.114;24.220;2023-02-23T07:40:50;97892.94;;;6.79;75.20
55066;BME280;40964;42.114;24.220;2023-02-23T07:43:16;97889.53;;;6.79;75.22
55066;BME280;40964;42.114;24.220;2023-02-23T07:45:41;97891.19;;;6.87;74.85
55066;BME280;40964;42.114;24.220;2023-02-23T07:48:07;97892.19;;;6.86;74.85
55066;BME280;40964;42.114;24.220;2023-02-23T07:50:33;97905.50;;;6.91;74.63
55066;BME280;40964;42.114;24.220;2023-02-23T07:53:00;97885.44;;;6.98;74.94
55066;BME280;40964;42.114;24.220;2023-02-23T07:55:25;97885.34;;;7.13;74.93
55066;BME280;40964;42.114;24.220;2023-02-23T07:57:51;97893.28;;;7.32;75.30
55066;BME280;40964;42.114;24.220;2023-02-23T08:00:17;97895.16;;;7.38;74.03
55066;BME280;40964;42.114;24.220;2023-02-23T08:02:43;97893.13;;;7.40;74.34
55066;BME280;40964;42.114;24.220;2023-02-23T08:05:09;97896.97;;;7.45;74.84
55066;BME280;40964;42.114;24.220;2023-02-23T08:07:34;97901.03;;;7.54;74.35
55066;BME280;40964;42.114;24.220;2023-02-23T08:10:00;97888.84;;;7.67;73.93
55066;BME280;40964;42.114;24.220;2023-02-23T08:12:25;97892.91;;;7.77;73.56
55066;BME280;40964;42.114;24.220;2023-02-23T08:14:51;97891.91;;;7.78;72.41
55066;BME280;40964;42.114;24.220;2023-02-23T08:17:18;97880.25;;;7.87;72.60
55066;BME280;40964;42.114;24.220;2023-02-23T08:19:43;97890.53;;;7.95;71.21
55066;BME280;40964;42.114;24.220;2023-02-23T08:22:09;97893.75;;;7.97;71.65
55066;BME280;40964;42.114;24.220;2023-02-23T08:24:35;97887.94;;;8.02;71.11
55066;BME280;40964;42.114;24.220;2023-02-23T08:27:02;97897.84;;;8.26;71.38
55066;BME280;40964;42.114;24.220;2023-02-23T08:29:27;97880.09;;;8.15;72.43
55066;BME280;40964;42.114;24.220;2023-02-23T08:31:53;97902.16;;;8.40;72.18
55066;BME280;40964;42.114;24.220;2023-02-23T08:34:21;97892.28;;;8.42;71.79
55066;BME280;40964;42.114;24.220;2023-02-23T08:36:47;97901.16;;;8.48;72.32
55066;BME280;40964;42.114;24.220;2023-02-23T08:39:13;97897.94;;;8.66;70.79
55066;BME280;40964;42.114;24.220;2023-02-23T08:41:39;97900.38;;;8.74;71.13
55066;BME280;40964;42.114;24.220;2023-02-23T08:44:05;97892.28;;;8.89;70.08
55066;BME280;40964;42.114;24.220;2023-02-23T08:46:30;97885.22;;;8.96;70.37
55066;BME280;40964;42.114;24.220;2023-02-23T08:48:56;97882.97;;;9.06;70.18
55066;BME280;40964;42.114;24.220;2023-02-23T08:51:22;97889.63;;;9.28;70.59
55066;BME280;40964;42.114;24.220;2023-02-23T08:53:48;97891.59;;;9.46;69.47
55066;BME280;40964;42.114;24.220;2023-02-23T08:56:14;97888.38;;;9.44;67.85
55066;BME280;40964;42.114;24.220;2023-02-23T08:58:40;97893.38;;;9.52;66.47
55066;BME280;40964;42.114;24.220;2023-02-23T09:01:06;97891.06;;;9.76;66.16
55066;BME280;40964;42.114;24.220;2023-02-23T09:03:32;97896.31;;;9.82;65.26
55066;BME280;40964;42.114;24.220;2023-02-23T09:06:10;97902.28;;;9.96;64.97
55066;BME280;40964;42.114;24.220;2023-02-23T09:08:37;97902.06;;;10.04;64.47
55066;BME280;40964;42.114;24.220;2023-02-23T09:11:04;97897.38;;;10.06;64.27
55066;BME280;40964;42.114;24.220;2023-02-23T09:13:30;97897.00;;;10.03;65.27
55066;BME280;40964;42.114;24.220;2023-02-23T09:15:55;97894.31;;;10.16;64.35
55066;BME280;40964;42.114;24.220;2023-02-23T09:18:21;97892.47;;;10.23;64.30
55066;BME280;40964;42.114;24.220;2023-02-23T09:20:49;97900.06;;;10.38;63.52
55066;BME280;40964;42.114;24.220;2023-02-23T09:23:14;97893.03;;;10.63;63.00
55066;BME280;40964;42.114;24.220;2023-02-23T09:25:44;97893.72;;;10.77;63.89
55066;BME280;40964;42.114;24.220;2023-02-23T09:28:14;97886.84;;;10.76;63.03
55066;BME280;40964;42.114;24.220;2023-02-23T09:30:41;97883.28;;;10.70;62.81
55066;BME280;40964;42.114;24.220;2023-02-23T09:33:07;97892.06;;;10.83;62.75
55066;BME280;40964;42.114;24.220;2023-02-23T09:35:33;97892.56;;;11.16;62.88
55066;BME280;40964;42.114;24.220;2023-02-23T09:38:01;97888.47;;;11.20;62.73
55066;BME280;40964;42.114;24.220;2023-02-23T09:40:42;97865.84;;;10.94;62.29
55066;BME280;40964;42.114;24.220;2023-02-23T09:43:15;97893.34;;;11.42;60.13
55066;BME280;40964;42.114;24.220;2023-02-23T09:45:53;97892.16;;;11.56;60.65
55066;BME280;40964;42.114;24.220;2023-02-23T09:48:24;97882.06;;;11.53;60.04
55066;BME280;40964;42.114;24.220;2023-02-23T09:50:53;97888.41;;;11.27;60.14
55066;BME280;40964;42.114;24.220;2023-02-23T09:56:12;97887.16;;;11.48;59.96
55066;BME280;40964;42.114;24.220;2023-02-23T09:58:39;97895.06;;;11.84;59.33
55066;BME280;40964;42.114;24.220;2023-02-23T10:03:56;97886.88;;;11.92;57.57
55066;BME280;40964;42.114;24.220;2023-02-23T10:06:24;97875.06;;;11.95;58.88
55066;BME280;40964;42.114;24.220;2023-02-23T10:20:12;97872.72;;;12.05;58.19
55066;BME280;40964;42.114;24.220;2023-02-23T10:22:42;97862.25;;;12.29;57.74
55066;BME280;40964;42.114;24.220;2023-02-23T10:25:13;97864.00;;;12.46;56.18
55066;BME280;40964;42.114;24.220;2023-02-23T10:27:44;97855.78;;;12.66;56.51
55066;BME280;40964;42.114;24.220;2023-02-23T10:33:14;97859.47;;;12.77;55.80
55066;BME280;40964;42.114;24.220;2023-02-23T10:35:44;97840.28;;;12.93;56.41
55066;BME280;40964;42.114;24.220;2023-02-23T10:38:15;97845.56;;;12.93;55.35
55066;BME280;40964;42.114;24.220;2023-02-23T10:40:42;97833.88;;;13.13;55.65
55066;BME280;40964;42.114;24.220;2023-02-23T10:43:10;97839.69;;;13.38;55.14
55066;BME280;40964;42.114;24.220;2023-02-23T10:45:48;97840.28;;;13.28;53.65
55066;BME280;40964;42.114;24.220;2023-02-23T10:48:24;97833.53;;;12.97;53.55
55066;BME280;40964;42.114;24.220;2023-02-23T10:50:54;97826.28;;;12.93;54.17
55066;BME280;40964;42.114;24.220;2023-02-23T10:53:36;97834.44;;;13.15;54.97
55066;BME280;40964;42.114;24.220;2023-02-23T10:58:43;97825.72;;;13.14;53.27
55066;BME280;40964;42.114;24.220;2023-02-23T11:01:10;97817.97;;;13.48;53.06
55066;BME280;40964;42.114;24.220;2023-02-23T11:03:41;97793.19;;;13.37;53.08
55066;BME280;40964;42.114;24.220;2023-02-23T11:06:34;97821.91;;;13.74;52.12
55066;BME280;40964;42.114;24.220;2023-02-23T11:09:24;97818.84;;;13.65;51.75
55066;BME280;40964;42.114;24.220;2023-02-23T11:11:59;97811.09;;;14.04;51.72
55066;BME280;40964;42.114;24.220;2023-02-23T11:14:29;97813.56;;;13.94;51.34
55066;BME280;40964;42.114;24.220;2023-02-23T11:16:57;97810.16;;;13.81;51.35
55066;BME280;40964;42.114;24.220;2023-02-23T11:19:34;97809.50;;;14.03;52.23
55066;BME280;40964;42.114;24.220;2023-02-23T11:22:02;97804.22;;;14.03;50.62
55066;BME280;40964;42.114;24.220;2023-02-23T11:24:33;97806.47;;;14.28;50.57
55066;BME280;40964;42.114;24.220;2023-02-23T11:27:02;97806.13;;;14.53;50.30
55066;BME280;40964;42.114;24.220;2023-02-23T11:29:38;97803.94;;;14.66;49.50
55066;BME280;40964;42.114;24.220;2023-02-23T11:34:38;97799.78;;;14.54;49.84
55066;BME280;40964;42.114;24.220;2023-02-23T11:39:57;97789.44;;;14.52;51.25
55066;BME280;40964;42.114;24.220;2023-02-23T11:42:25;97799.53;;;14.38;50.98
55066;BME280;40964;42.114;24.220;2023-02-23T11:45:16;97803.53;;;14.41;50.85
55066;BME280;40964;42.114;24.220;2023-02-23T11:47:56;97795.03;;;14.39;50.54
55066;BME280;40964;42.114;24.220;2023-02-23T11:50:33;97800.50;;;14.66;49.80
55066;BME280;40964;42.114;24.220;2023-02-23T11:53:15;97799.28;;;14.73;49.07
55066;BME280;40964;42.114;24.220;2023-02-23T11:55:51;97789.97;;;14.88;48.51
55066;BME280;40964;42.114;24.220;2023-02-23T11:58:25;97790.69;;;15.22;48.62
55066;BME280;40964;42.114;24.220;2023-02-23T12:00:55;97790.63;;;15.39;48.44
55066;BME280;40964;42.114;24.220;2023-02-23T12:03:22;97789.38;;;15.24;47.92
55066;BME280;40964;42.114;24.220;2023-02-23T12:05:52;97783.41;;;15.12;47.94
55066;BME280;40964;42.114;24.220;2023-02-23T12:08:41;97792.50;;;14.99;47.89
55066;BME280;40964;42.114;24.220;2023-02-23T12:11:14;97787.44;;;14.98;49.26
55066;BME280;40964;42.114;24.220;2023-02-23T12:13:53;97781.47;;;14.86;49.83
55066;BME280;40964;42.114;24.220;2023-02-23T12:16:32;97793.09;;;14.85;50.78
55066;BME280;40964;42.114;24.220;2023-02-23T12:19:10;97791.66;;;14.77;50.38
55066;BME280;40964;42.114;24.220;2023-02-23T12:21:45;97787.19;;;14.99;50.81
55066;BME280;40964;42.114;24.220;2023-02-23T12:24:17;97786.44;;;15.21;49.10
55066;BME280;40964;42.114;24.220;2023-02-23T12:30:20;97793.66;;;14.87;51.10
55066;BME280;40964;42.114;24.220;2023-02-23T12:32:53;97801.44;;;14.93;51.14
55066;BME280;40964;42.114;24.220;2023-02-23T12:35:26;97791.81;;;14.87;50.67
55066;BME280;40964;42.114;24.220;2023-02-23T12:38:11;97802.09;;;14.84;50.79
55066;BME280;40964;42.114;24.220;2023-02-23T12:40:39;97794.41;;;14.65;50.99
55066;BME280;40964;42.114;24.220;2023-02-23T12:43:23;97793.94;;;14.90;50.80
55066;BME280;40964;42.114;24.220;2023-02-23T12:46:50;97797.13;;;14.70;51.05
55066;BME280;40964;42.114;24.220;2023-02-23T12:53:58;97802.09;;;14.84;50.59
55066;BME280;40964;42.114;24.220;2023-02-23T13:01:58;97802.56;;;14.81;51.01
55066;BME280;40964;42.114;24.220;2023-02-23T13:07:35;97802.59;;;14.47;51.68
55066;BME280;40964;42.114;24.220;2023-02-23T13:20:32;97805.84;;;13.92;54.35
55066;BME280;40964;42.114;24.220;2023-02-23T13:28:20;97809.44;;;14.14;53.97
55066;BME280;40964;42.114;24.220;2023-02-23T13:30:52;97805.25;;;14.18;53.96
55066;BME280;40964;42.114;24.220;2023-02-23T13:33:28;97811.44;;;14.24;53.66
55066;BME280;40964;42.114;24.220;2023-02-23T13:36:02;97813.81;;;14.09;54.07
55066;BME280;40964;42.114;24.220;2023-02-23T13:39:51;97810.94;;;14.10;54.55
55066;BME280;40964;42.114;24.220;2023-02-23T13:44:54;97813.94;;;14.31;54.57
55066;BME280;40964;42.114;24.220;2023-02-23T13:49:59;97809.44;;;14.14;54.39
55066;BME280;40964;42.114;24.220;2023-02-23T13:52:37;97818.78;;;14.05;55.13
55066;BME280;40964;42.114;24.220;2023-02-23T14:00:28;97823.16;;;14.11;55.30
55066;BME280;40964;42.114;24.220;2023-02-23T14:02:54;97820.91;;;14.20;55.04
55066;BME280;40964;42.114;24.220;2023-02-23T14:05:25;97811.56;;;14.01;55.54
55066;BME280;40964;42.114;24.220;2023-02-23T14:08:00;97826.94;;;13.87;57.16
55066;BME280;40964;42.114;24.220;2023-02-23T14:23:34;97837.56;;;13.63;59.00
55066;BME280;40964;42.114;24.220;2023-02-23T14:28:41;97827.09;;;13.28;60.01
55066;BME280;40964;42.114;24.220;2023-02-23T14:46:47;97845.44;;;12.65;64.66
55066;BME280;40964;42.114;24.220;2023-02-23T14:49:18;97844.88;;;12.51;65.08
55066;BME280;40964;42.114;24.220;2023-02-23T14:51:52;97847.28;;;12.41;65.81
55066;BME280;40964;42.114;24.220;2023-02-23T14:56:56;97842.28;;;12.21;66.30
55066;BME280;40964;42.114;24.220;2023-02-23T14:59:28;97860.31;;;12.24;66.29
55066;BME280;40964;42.114;24.220;2023-02-23T15:01:58;97854.16;;;12.12;66.32
55066;BME280;40964;42.114;24.220;2023-02-23T15:04:26;97859.41;;;12.00;67.48
55066;BME280;40964;42.114;24.220;2023-02-23T15:06:57;97858.09;;;11.91;67.97
55066;BME280;40964;42.114;24.220;2023-02-23T15:09:28;97857.03;;;11.80;68.70
55066;BME280;40964;42.114;24.220;2023-02-23T15:11:56;97865.44;;;11.71;69.69
55066;BME280;40964;42.114;24.220;2023-02-23T15:14:22;97861.63;;;11.66;69.82
55066;BME280;40964;42.114;24.220;2023-02-23T15:16:48;97867.56;;;11.62;70.88
55066;BME280;40964;42.114;24.220;2023-02-23T15:19:19;97871.94;;;11.50;72.02
55066;BME280;40964;42.114;24.220;2023-02-23T15:21:53;97865.25;;;11.35;72.84
55066;BME280;40964;42.114;24.220;2023-02-23T15:24:26;97861.22;;;11.15;74.12
55066;BME280;40964;42.114;24.220;2023-02-23T15:26:54;97870.78;;;11.09;75.00
55066;BME280;40964;42.114;24.220;2023-02-23T15:29:22;97888.00;;;11.05;75.51
55066;BME280;40964;42.114;24.220;2023-02-23T15:31:51;97894.25;;;10.86;76.20
55066;BME280;40964;42.114;24.220;2023-02-23T15:34:21;97892.50;;;10.79;77.01
55066;BME280;40964;42.114;24.220;2023-02-23T15:37:00;97890.75;;;10.67;77.83
55066;BME280;40964;42.114;24.220;2023-02-23T15:39:43;97897.31;;;10.58;79.50
55066;BME280;40964;42.114;24.220;2023-02-23T15:42:13;97897.56;;;10.49;79.56
55066;BME280;40964;42.114;24.220;2023-02-23T15:44:40;97902.28;;;10.41;80.25
55066;BME280;40964;42.114;24.220;2023-02-23T15:47:22;97904.59;;;10.24;81.75